Time;durP1;ratioP1;P1;durP2;ratioP2;P2;SDS_P1;SDS_P2;PMS_P1;PMS_P2;Temp;Humidity;BMP_temperature;BMP_pressure;BME280_temperature;BME280_humidity;BME280_pressure;Samples;Min_cycle;Max_cycle;Signal;HPM_P1;HPM_P2
2022/09/05 00:02:02;;;;;;;4.70;4.20;;;17.60;1.00;;;;;;5038013;28;20419;-72
2022/09/05 00:04:45;;;;;;;6.53;4.40;;;17.50;1.00;;;;;;5033452;28;20444;-72
2022/09/05 00:07:33;;;;;;;11.37;4.53;;;17.50;1.00;;;;;;5041232;28;20197;-72
2022/09/05 00:10:11;;;;;;;5.57;4.40;;;17.40;1.00;;;;;;5048551;28;20460;-72
2022/09/05 00:12:38;;;;;;;4.90;4.13;;;17.20;1.00;;;;;;5040655;28;20436;-72
2022/09/05 00:15:20;;;;;;;5.13;4.30;;;17.20;1.00;;;;;;5043125;28;20777;-72
2022/09/05 00:18:15;;;;;;;6.30;4.30;;;17.20;1.00;;;;;;5048969;28;20672;-72
2022/09/05 00:21:12;;;;;;;5.40;4.43;;;17.20;1.00;;;;;;5047584;28;20909;-72
2022/09/05 00:24:01;;;;;;;6.33;4.30;;;17.20;1.00;;;;;;5047169;28;20434;-72
2022/09/05 00:26:47;;;;;;;4.60;3.83;;;17.10;1.00;;;;;;5051988;28;20442;-72
2022/09/05 00:29:40;;;;;;;6.20;4.43;;;17.10;1.00;;;;;;5048457;28;20497;-72
2022/09/05 00:32:15;;;;;;;7.60;4.17;;;17.10;1.00;;;;;;5038024;28;20431;-72
2022/09/05 00:35:11;;;;;;;7.13;4.30;;;17.10;1.00;;;;;;5047009;28;20445;-72
2022/09/05 00:37:44;;;;;;;5.83;4.10;;;17.10;1.00;;;;;;5041224;28;20463;-72
2022/09/05 00:40:29;;;;;;;6.10;4.47;;;17.10;1.00;;;;;;5044730;28;20516;-72
2022/09/05 00:43:11;;;;;;;6.53;4.10;;;17.20;1.00;;;;;;5043277;28;20447;-72
2022/09/05 00:45:57;;;;;;;5.30;3.93;;;17.20;1.00;;;;;;5046937;28;20542;-72
2022/09/05 00:48:42;;;;;;;7.70;4.50;;;17.20;1.00;;;;;;5043206;28;20438;-72
2022/09/05 00:51:11;;;;;;;4.90;4.40;;;17.20;1.00;;;;;;5044052;28;20442;-72
2022/09/05 00:53:53;;;;;;;5.73;4.40;;;17.10;1.00;;;;;;5045875;28;20485;-72
2022/09/05 00:57:07;;;;;;;5.60;4.10;;;17.00;1.00;;;;;;5050976;28;20447;-72
2022/09/05 01:00:05;;;;;;;5.10;4.50;;;17.00;1.00;;;;;;5038502;28;20427;-72
2022/09/05 01:02:59;;;;;;;5.00;4.13;;;16.90;1.00;;;;;;5036824;28;20858;-72
2022/09/05 01:05:39;;;;;;;4.60;4.10;;;16.80;1.00;;;;;;5045473;28;20451;-72
2022/09/05 01:08:35;;;;;;;6.77;3.97;;;16.80;1.00;;;;;;5035987;28;20934;-72
2022/09/05 01:11:21;;;;;;;6.20;4.40;;;16.80;1.00;;;;;;5043299;28;20427;-72
2022/09/05 01:14:06;;;;;;;6.37;4.10;;;16.80;1.00;;;;;;5046608;28;20578;-72
2022/09/05 01:16:53;;;;;;;5.60;3.90;;;16.70;1.00;;;;;;5047262;28;20775;-72
2022/09/05 01:19:56;;;;;;;6.67;4.53;;;16.80;1.00;;;;;;5039795;28;20570;-72
2022/09/05 01:22:38;;;;;;;6.93;4.33;;;16.80;1.00;;;;;;5047446;28;20454;-72
2022/09/05 01:25:34;;;;;;;6.77;4.10;;;16.70;1.00;;;;;;5048508;28;20465;-72
2022/09/05 01:28:14;;;;;;;6.80;3.93;;;16.70;1.00;;;;;;5036312;28;20799;-72
2022/09/05 01:30:49;;;;;;;4.47;4.07;;;16.80;1.00;;;;;;5043235;28;20927;-72
2022/09/05 01:33:45;;;;;;;8.10;4.63;;;16.70;1.00;;;;;;5042589;28;20496;-72
2022/09/05 01:36:39;;;;;;;8.67;5.00;;;16.70;1.00;;;;;;5037082;28;20452;-72
2022/09/05 01:39:32;;;;;;;9.37;4.90;;;16.70;1.00;;;;;;5036217;28;20550;-72
2022/09/05 01:42:13;;;;;;;6.50;4.30;;;16.70;1.00;;;;;;5049968;28;20543;-72
2022/09/05 01:45:03;;;;;;;4.57;4.10;;;17.70;1.00;;;;;;5045075;28;20469;-72
2022/09/05 01:47:53;;;;;;;8.40;4.87;;;16.80;1.00;;;;;;5038309;28;21000;-72
2022/09/05 01:51:02;;;;;;;4.80;4.30;;;16.80;1.00;;;;;;5033279;28;20474;-72
2022/09/05 01:53:48;;;;;;;5.20;4.40;;;16.80;1.00;;;;;;5038119;28;20439;-72
2022/09/05 01:56:34;;;;;;;6.37;4.40;;;16.80;1.00;;;;;;5038324;28;20956;-72
2022/09/05 01:59:00;;;;;;;6.90;4.80;;;16.70;1.00;;;;;;5041330;28;20586;-71
2022/09/05 02:01:30;;;;;;;7.93;4.30;;;16.70;1.00;;;;;;5049190;28;20502;-72
2022/09/05 02:04:24;;;;;;;5.80;4.30;;;16.60;1.00;;;;;;5029463;28;20644;-71
2022/09/05 02:07:11;;;;;;;4.87;4.07;;;16.60;1.00;;;;;;5043802;28;20522;-71
2022/09/05 02:09:57;;;;;;;6.43;5.17;;;16.50;1.00;;;;;;5041661;28;20452;-71
2022/09/05 02:12:33;;;;;;;5.20;4.10;;;16.50;1.00;;;;;;5042200;28;20433;-71
2022/09/05 02:15:24;;;;;;;4.50;4.10;;;16.40;1.00;;;;;;5042592;28;20588;-71
2022/09/05 02:18:04;;;;;;;6.13;4.30;;;16.40;1.00;;;;;;5037879;28;20518;-72
2022/09/05 02:20:41;;;;;;;5.33;4.47;;;16.40;1.00;;;;;;5037243;28;20439;-72
2022/09/05 02:23:14;;;;;;;9.03;4.10;;;16.40;1.00;;;;;;5046510;28;20522;-72
2022/09/05 02:25:48;;;;;;;6.13;4.30;;;16.30;1.00;;;;;;5049508;28;20440;-71
2022/09/05 02:28:39;;;;;;;4.93;4.00;;;16.30;1.00;;;;;;5046716;28;20589;-72
2022/09/05 02:31:23;;;;;;;5.20;4.03;;;16.30;1.00;;;;;;5030843;28;20436;-71
2022/09/05 02:34:02;;;;;;;5.70;4.67;;;16.40;1.00;;;;;;5046821;28;20428;-71
2022/09/05 02:36:44;;;;;;;4.27;3.87;;;16.30;1.00;;;;;;5047334;28;20475;-71
2022/09/05 02:39:45;;;;;;;6.37;4.53;;;16.30;1.00;;;;;;5043033;28;20545;-72
2022/09/05 02:42:26;;;;;;;7.50;4.10;;;16.40;1.00;;;;;;5046477;28;20422;-71
2022/09/05 02:45:19;;;;;;;7.03;3.93;;;16.40;1.00;;;;;;5047357;28;20454;-72
2022/09/05 02:48:11;;;;;;;10.10;4.20;;;16.40;1.00;;;;;;5043977;28;20448;-71
2022/09/05 02:50:47;;;;;;;4.93;4.30;;;16.40;1.00;;;;;;5046622;28;20934;-71
2022/09/05 02:53:17;;;;;;;4.50;4.10;;;16.40;1.00;;;;;;5045870;28;20442;-71
2022/09/05 02:56:06;;;;;;;5.53;3.80;;;16.40;1.00;;;;;;5048957;28;20451;-71
2022/09/05 02:59:05;;;;;;;4.40;4.00;;;16.40;1.00;;;;;;5043257;28;20493;-72
2022/09/05 03:01:51;;;;;;;5.37;4.03;;;16.50;1.00;;;;;;5038407;28;20435;-72
2022/09/05 03:04:43;;;;;;;4.17;3.77;;;16.40;1.00;;;;;;5041467;28;20482;-71
2022/09/05 03:07:21;;;;;;;4.67;4.17;;;16.40;1.00;;;;;;5043614;28;20423;-71
2022/09/05 03:10:15;;;;;;;6.30;4.27;;;16.40;1.00;;;;;;5044977;28;20427;-72
2022/09/05 03:12:49;;;;;;;5.93;3.93;;;16.40;1.00;;;;;;5048314;28;20782;-72
2022/09/05 03:15:20;;;;;;;6.40;3.80;;;16.40;1.00;;;;;;5041521;28;20892;-72
2022/09/05 03:18:17;;;;;;;4.80;4.23;;;16.30;1.00;;;;;;5034835;28;20798;-72
2022/09/05 03:21:07;;;;;;;4.10;3.70;;;16.20;1.00;;;;;;5038894;28;20812;-72
2022/09/05 03:24:03;;;;;;;4.63;4.10;;;16.20;1.00;;;;;;5035097;28;20438;-72
2022/09/05 03:26:51;;;;;;;4.77;3.83;;;16.30;1.00;;;;;;5034250;28;20568;-72
2022/09/05 03:29:56;;;;;;;4.23;3.83;;;16.20;1.00;;;;;;5041484;28;20434;-72
2022/09/05 03:32:41;;;;;;;5.83;4.20;;;16.20;1.00;;;;;;5044786;28;20450;-72
2022/09/05 03:35:37;;;;;;;5.07;3.90;;;16.20;1.00;;;;;;5039962;28;20443;-72
2022/09/05 03:38:18;;;;;;;3.87;3.50;;;16.20;1.00;;;;;;5035307;28;21040;-72
2022/09/05 03:41:17;;;;;;;6.20;4.17;;;16.20;1.00;;;;;;5048836;28;20534;-72
2022/09/05 03:44:08;;;;;;;5.23;3.83;;;16.30;1.00;;;;;;5032842;28;20515;-72
2022/09/05 03:46:52;;;;;;;4.73;3.70;;;16.30;1.00;;;;;;5052537;28;20439;-72
2022/09/05 03:49:47;;;;;;;4.50;4.10;;;16.30;1.00;;;;;;5038567;28;20475;-72
2022/09/05 03:52:56;;;;;;;8.83;4.17;;;16.30;1.00;;;;;;5037165;28;20571;-72
2022/09/05 03:55:49;;;;;;;4.20;3.77;;;16.40;1.00;;;;;;5058547;28;20964;-72
2022/09/05 03:58:19;;;;;;;5.47;4.10;;;16.30;1.00;;;;;;5042735;28;20459;-73
2022/09/05 04:01:08;;;;;;;6.50;3.80;;;16.20;1.00;;;;;;5045667;28;20428;-72
2022/09/05 04:03:56;;;;;;;6.77;4.10;;;16.20;1.00;;;;;;5046699;28;20422;-73
2022/09/05 04:06:33;;;;;;;5.10;3.83;;;16.20;1.00;;;;;;5048342;28;20427;-72
2022/09/05 04:09:51;;;;;;;5.80;4.47;;;16.20;1.00;;;;;;5047944;28;20781;-72
2022/09/05 04:12:37;;;;;;;6.53;4.40;;;16.20;1.00;;;;;;5033637;28;20420;-72
2022/09/05 04:15:16;;;;;;;6.67;4.20;;;16.30;1.00;;;;;;5046127;28;20501;-73
2022/09/05 04:17:53;;;;;;;6.80;4.30;;;16.30;1.00;;;;;;5047630;28;20460;-72
2022/09/05 04:20:41;;;;;;;8.33;4.20;;;16.30;1.00;;;;;;5045505;28;20424;-72
2022/09/05 04:23:23;;;;;;;6.37;4.27;;;16.10;1.00;;;;;;5035122;28;20433;-73
2022/09/05 04:26:05;;;;;;;5.57;4.97;;;16.10;1.00;;;;;;5047312;28;20881;-72
2022/09/05 04:28:58;;;;;;;5.07;4.40;;;16.10;1.00;;;;;;5050106;28;20443;-72
2022/09/05 04:31:55;;;;;;;5.40;4.20;;;16.00;1.00;;;;;;5043132;28;20449;-73
2022/09/05 04:34:42;;;;;;;8.70;4.53;;;16.00;1.00;;;;;;5037473;28;20436;-72
2022/09/05 04:37:09;;;;;;;6.97;4.37;;;15.90;1.00;;;;;;5049990;28;20897;-72
2022/09/05 04:39:35;;;;;;;5.73;4.13;;;15.90;1.00;;;;;;5048390;28;20447;-73
2022/09/05 04:42:04;;;;;;;5.43;4.40;;;15.70;1.90;;;;;;5050958;28;20416;-73
2022/09/05 04:44:39;;;;;;;6.60;4.00;;;15.80;1.20;;;;;;5047414;28;20450;-72
2022/09/05 04:47:33;;;;;;;5.10;3.80;;;15.70;1.60;;;;;;5044856;28;20762;-72
2022/09/05 04:50:13;;;;;;;6.17;5.07;;;15.80;2.10;;;;;;5048383;28;20794;-72
2022/09/05 04:52:48;;;;;;;5.67;5.00;;;15.90;1.70;;;;;;5045162;28;20922;-73
2022/09/05 04:55:22;;;;;;;5.40;4.23;;;15.90;2.10;;;;;;5051144;28;20442;-74
2022/09/05 04:57:56;;;;;;;6.93;4.70;;;15.90;2.10;;;;;;5046750;28;20528;-73
2022/09/05 05:00:34;;;;;;;4.70;4.10;;;16.00;2.30;;;;;;5050210;28;20412;-73
2022/09/05 05:03:03;;;;;;;5.37;4.47;;;16.00;3.40;;;;;;5044898;28;20921;-73
2022/09/05 05:05:48;;;;;;;9.20;4.63;;;16.00;3.50;;;;;;5043853;28;20447;-73
2022/09/05 05:08:16;;;;;;;8.00;5.07;;;16.10;2.90;;;;;;5052653;28;20447;-72
2022/09/05 05:10:46;;;;;;;5.40;4.80;;;16.20;1.50;;;;;;5055164;28;20435;-73
2022/09/05 05:13:22;;;;;;;8.03;5.40;;;16.30;1.10;;;;;;5039192;28;20472;-73
2022/09/05 05:16:04;;;;;;;8.03;4.90;;;16.40;1.00;;;;;;5047634;28;20451;-73
2022/09/05 05:18:49;;;;;;;5.40;4.90;;;16.50;1.00;;;;;;5033838;28;20456;-73
2022/09/05 05:21:21;;;;;;;8.20;5.50;;;16.50;1.00;;;;;;5047759;28;20422;-73
2022/09/05 05:23:54;;;;;;;7.00;4.67;;;16.70;1.00;;;;;;5037335;28;20482;-74
2022/09/05 05:26:25;;;;;;;6.00;4.80;;;16.70;1.00;;;;;;5041994;28;20460;-73
2022/09/05 05:29:01;;;;;;;10.27;5.40;;;16.70;1.00;;;;;;5046530;28;20482;-73
2022/09/05 05:31:31;;;;;;;8.43;4.87;;;16.70;1.00;;;;;;5047830;28;20466;-73
2022/09/05 05:34:03;;;;;;;6.00;5.40;;;16.70;1.00;;;;;;5031565;28;20433;-73
2022/09/05 05:36:38;;;;;;;5.53;4.97;;;16.80;1.00;;;;;;5040927;28;20436;-73
2022/09/05 05:39:13;;;;;;;6.97;4.83;;;16.80;1.00;;;;;;5033050;28;20464;-73
2022/09/05 05:41:48;;;;;;;6.57;4.90;;;16.80;1.00;;;;;;5043131;28;20424;-73
2022/09/05 05:44:16;;;;;;;10.77;5.20;;;16.80;1.00;;;;;;5049269;28;20446;-73
2022/09/05 05:47:04;;;;;;;8.03;5.30;;;16.90;1.00;;;;;;5043460;28;20494;-72
2022/09/05 05:49:52;;;;;;;7.00;4.90;;;16.90;1.00;;;;;;5042261;28;20807;-73
2022/09/05 05:52:35;;;;;;;6.80;5.10;;;17.00;1.00;;;;;;5039608;28;20566;-73
2022/09/05 05:55:15;;;;;;;7.90;5.80;;;17.10;1.00;;;;;;5042013;28;20830;-73
2022/09/05 05:58:25;;;;;;;6.57;5.57;;;17.20;1.00;;;;;;5047952;28;20459;-73
2022/09/05 06:00:54;;;;;;;7.57;5.23;;;17.30;1.00;;;;;;5047884;28;20443;-72
2022/09/05 06:03:32;;;;;;;6.90;5.60;;;17.40;1.00;;;;;;5047948;28;20465;-72
2022/09/05 06:06:11;;;;;;;12.37;6.10;;;17.60;1.00;;;;;;5039890;28;20653;-72
2022/09/05 06:08:59;;;;;;;8.40;5.90;;;18.00;1.00;;;;;;5044607;28;20420;-72
2022/09/05 06:12:16;;;;;;;6.90;6.00;;;18.20;1.00;;;;;;5048920;28;20462;-72
2022/09/05 06:15:02;;;;;;;10.43;7.37;;;18.40;1.00;;;;;;5031030;28;20459;-72
2022/09/05 06:18:06;;;;;;;7.60;6.80;;;18.50;1.00;;;;;;5056139;28;20494;-72
2022/09/05 06:21:14;;;;;;;8.93;7.00;;;18.60;1.00;;;;;;5021569;28;20420;-72
2022/09/05 06:24:17;;;;;;;10.25;7.60;;;18.60;1.00;;;;;;5044465;28;20464;-73
2022/09/05 06:27:25;;;;;;;8.53;7.57;;;18.70;1.00;;;;;;5044717;28;20166;-72
2022/09/05 06:30:03;;;;;;;10.70;8.80;;;19.00;1.00;;;;;;5048052;28;20782;-72
2022/09/05 06:32:52;;;;;;;14.93;9.47;;;19.30;1.00;;;;;;5046041;28;20481;-72
2022/09/05 06:35:22;;;;;;;12.20;9.27;;;19.50;1.00;;;;;;5033684;28;20440;-73
2022/09/05 06:38:22;;;;;;;13.87;9.63;;;19.90;1.00;;;;;;5045932;28;20508;-74
2022/09/05 06:41:20;;;;;;;11.90;9.60;;;20.50;1.00;;;;;;5034426;28;20432;-73
2022/09/05 06:44:25;;;;;;;11.00;9.40;;;21.00;1.00;;;;;;5045029;28;20814;-73
2022/09/05 06:46:53;;;;;;;11.13;8.43;;;21.50;1.00;;;;;;5039022;28;20450;-73
2022/09/05 06:49:24;;;;;;;14.17;8.40;;;22.00;1.00;;;;;;5042687;28;20431;-73
2022/09/05 06:52:19;;;;;;;15.10;8.50;;;22.40;1.00;;;;;;5042266;28;20449;-73
2022/09/05 06:55:24;;;;;;;13.53;7.10;;;22.70;1.00;;;;;;5035582;28;20444;-74
2022/09/05 06:58:24;;;;;;;8.60;7.60;;;22.70;1.00;;;;;;5043841;28;20482;-73
2022/09/05 07:00:53;;;;;;;8.37;6.80;;;22.70;1.00;;;;;;5040698;28;20416;-73
2022/09/05 07:03:40;;;;;;;9.80;7.90;;;22.70;1.00;;;;;;5032671;28;20917;-73
2022/09/05 07:06:08;;;;;;;11.63;7.00;;;22.60;1.00;;;;;;5045495;28;20450;-73
2022/09/05 07:09:02;;;;;;;11.27;6.60;;;23.00;1.00;;;;;;5040377;28;20486;-73
2022/09/05 07:11:47;;;;;;;8.87;6.50;;;23.70;1.00;;;;;;5038736;28;20485;-73
2022/09/05 07:14:20;;;;;;;9.50;7.07;;;24.10;1.00;;;;;;5042649;28;20425;-74
2022/09/05 07:16:58;;;;;;;12.80;7.10;;;24.00;1.00;;;;;;5052633;28;20414;-74
2022/09/05 07:19:29;;;;;;;8.93;6.73;;;23.80;1.00;;;;;;5048195;28;20538;-74
2022/09/05 07:22:06;;;;;;;9.47;7.37;;;23.70;1.00;;;;;;5035850;28;20453;-72
2022/09/05 07:24:36;;;;;;;12.60;7.90;;;23.90;1.00;;;;;;5045710;28;20786;-72
2022/09/05 07:27:05;;;;;;;8.70;7.37;;;24.50;1.00;;;;;;5035399;28;20933;-72
2022/09/05 07:29:35;;;;;;;10.83;8.83;;;25.10;1.00;;;;;;5037422;28;20485;-72
2022/09/05 07:32:05;;;;;;;11.53;8.20;;;26.10;1.00;;;;;;5040699;28;20877;-72
2022/09/05 07:34:33;;;;;;;13.37;8.40;;;27.20;1.00;;;;;;5052642;28;20442;-72
2022/09/05 07:37:08;;;;;;;10.70;8.07;;;27.80;1.00;;;;;;5051536;28;20423;-73
2022/09/05 07:39:40;;;;;;;8.10;6.87;;;28.10;1.00;;;;;;5049344;28;20176;-72
2022/09/05 07:42:13;;;;;;;7.40;6.70;;;28.70;1.00;;;;;;5046941;28;20512;-72
2022/09/05 07:44:55;;;;;;;13.80;6.47;;;29.10;1.00;;;;;;5041329;28;20208;-72
2022/09/05 07:47:32;;;;;;;12.33;6.83;;;28.70;1.00;;;;;;5045641;28;20199;-73
2022/09/05 07:50:03;;;;;;;7.73;5.70;;;28.50;1.00;;;;;;5061723;28;20584;-73
2022/09/05 07:52:31;;;;;;;10.10;5.40;;;28.50;1.00;;;;;;5045683;28;20173;-72
2022/09/05 07:55:00;;;;;;;10.60;5.40;;;29.20;1.00;;;;;;5051988;28;20196;-72
2022/09/05 07:57:31;;;;;;;8.35;4.25;;;30.10;1.00;;;;;;5045670;28;20177;-72
2022/09/05 08:00:10;;;;;;;5.43;4.10;;;30.60;1.00;;;;;;5045692;28;20219;-72
2022/09/05 08:02:43;;;;;;;5.63;4.28;;;31.20;1.00;;;;;;5059956;28;20560;-72
2022/09/05 08:05:08;;;;;;;6.72;3.85;;;31.90;1.00;;;;;;5045049;28;20199;-73
2022/09/05 08:07:37;;;;;;;7.65;4.45;;;32.80;1.00;;;;;;5040660;28;20240;-72
2022/09/05 08:10:09;;;;;;;6.68;4.50;;;33.30;1.00;;;;;;5047196;28;20223;-72
2022/09/05 08:12:42;;;;;;;9.93;4.72;;;32.40;1.00;;;;;;5046627;28;20169;-73
2022/09/05 08:15:17;;;;;;;5.72;4.65;;;31.60;1.00;;;;;;5051283;28;20678;-72
2022/09/05 08:17:51;;;;;;;7.82;4.60;;;30.80;1.00;;;;;;5051506;28;20670;-72
2022/09/05 08:20:29;;;;;;;6.75;4.45;;;30.20;1.00;;;;;;5049145;28;20168;-73
2022/09/05 08:23:31;;;;;;;8.43;4.78;;;29.50;1.00;;;;;;5044938;28;20180;-72
2022/09/05 08:26:24;;;;;;;7.70;4.40;;;28.80;1.00;;;;;;5056198;28;20270;-72
2022/09/05 08:29:13;;;;;;;5.43;4.40;;;28.20;1.00;;;;;;5052053;28;20200;-72
2022/09/05 08:31:44;;;;;;;4.63;3.80;;;27.80;1.00;;;;;;5049478;28;20181;-72
2022/09/05 08:34:20;;;;;;;7.93;4.50;;;27.30;1.00;;;;;;5052690;28;20548;-72
2022/09/05 08:36:48;;;;;;;6.50;3.77;;;26.80;1.00;;;;;;5049496;28;20180;-72
2022/09/05 08:39:24;;;;;;;5.27;3.50;;;26.40;1.00;;;;;;5044513;28;20196;-72
2022/09/05 08:42:26;;;;;;;6.30;4.30;;;26.10;1.00;;;;;;5059629;28;20406;-72
2022/09/05 08:44:57;;;;;;;12.33;4.90;;;25.90;1.00;;;;;;5051667;28;20458;-72
2022/09/05 08:47:44;;;;;;;7.30;4.33;;;25.70;1.00;;;;;;5056519;28;20458;-72
2022/09/05 08:50:23;;;;;;;7.23;4.13;;;25.60;1.00;;;;;;5049256;28;20418;-72
2022/09/05 08:53:12;;;;;;;4.90;3.80;;;25.40;1.00;;;;;;5050004;28;20419;-72
2022/09/05 08:56:02;;;;;;;10.17;3.10;;;25.40;1.00;;;;;;5047759;28;20479;-72
2022/09/05 08:58:37;;;;;;;5.90;3.47;;;25.20;1.00;;;;;;5052187;28;20454;-72
2022/09/05 09:01:30;;;;;;;6.07;3.00;;;25.20;1.00;;;;;;5049510;28;20449;-72
2022/09/05 09:04:27;;;;;;;4.70;3.30;;;25.20;1.00;;;;;;5051853;28;20711;-72
2022/09/05 09:07:04;;;;;;;6.23;2.90;;;25.10;1.00;;;;;;5045959;28;20427;-73
2022/09/05 09:09:45;;;;;;;4.23;3.17;;;25.00;1.00;;;;;;5047863;28;20450;-72
2022/09/05 09:12:45;;;;;;;4.60;3.20;;;25.00;1.00;;;;;;5064165;28;20437;-72
2022/09/05 09:15:21;;;;;;;6.10;2.57;;;25.20;1.00;;;;;;5044305;28;20443;-72
2022/09/05 09:17:50;;;;;;;4.37;3.03;;;25.30;1.00;;;;;;5049527;28;20545;-72
2022/09/05 09:20:40;;;;;;;4.07;2.90;;;25.30;1.00;;;;;;5051967;28;20650;-72
2022/09/05 09:23:15;;;;;;;7.83;3.07;;;25.30;1.00;;;;;;5041863;28;20962;-72
2022/09/05 09:25:56;;;;;;;4.20;3.00;;;25.60;1.00;;;;;;5050436;28;20438;-72
2022/09/05 09:29:01;;;;;;;8.27;3.60;;;26.20;1.00;;;;;;5049929;28;20941;-72
2022/09/05 09:31:53;;;;;;;9.93;3.40;;;28.70;1.00;;;;;;5038212;28;20433;-73
2022/09/05 09:34:24;;;;;;;4.30;2.77;;;31.60;1.00;;;;;;5044238;28;20177;-72
2022/09/05 09:37:32;;;;;;;5.82;2.85;;;33.40;1.00;;;;;;5041351;28;20181;-73
2022/09/05 09:40:42;;;;;;;4.32;2.83;;;34.80;1.00;;;;;;5051641;28;20168;-73
2022/09/05 09:43:26;;;;;;;7.65;2.88;;;34.60;1.00;;;;;;5044528;28;20617;-73
2022/09/05 09:46:14;;;;;;;4.75;2.85;;;35.80;1.00;;;;;;5048515;28;20552;-72
2022/09/05 09:48:58;;;;;;;5.80;2.60;;;36.80;1.00;;;;;;5051542;28;20262;-73
2022/09/05 09:52:01;;;;;;;4.80;2.47;;;37.50;1.00;;;;;;5046107;28;20179;-73
2022/09/05 09:55:04;;;;;;;3.78;2.85;;;38.10;1.00;;;;;;5048049;28;20223;-73
2022/09/05 09:58:07;;;;;;;4.32;2.42;;;38.20;1.00;;;;;;5031571;28;20169;-73
2022/09/05 10:00:58;;;;;;;5.75;2.70;;;38.80;1.00;;;;;;5047170;28;20218;-73
2022/09/05 10:03:34;;;;;;;12.40;2.78;;;38.70;1.00;;;;;;5043073;28;20217;-73
2022/09/05 10:06:34;;;;;;;4.63;2.60;;;37.20;1.00;;;;;;5049470;28;20216;-73
2022/09/05 10:09:23;;;;;;;6.45;2.70;;;36.10;1.00;;;;;;5043111;28;20207;-72
2022/09/05 10:12:15;;;;;;;5.18;2.75;;;36.60;1.00;;;;;;5048774;28;20671;-73
2022/09/05 10:15:00;;;;;;;5.75;3.05;;;38.30;1.00;;;;;;5042728;28;20204;-73
2022/09/05 10:17:56;;;;;;;3.45;2.35;;;37.70;1.00;;;;;;5041583;28;20639;-73
2022/09/05 10:20:40;;;;;;;6.10;2.67;;;36.70;1.00;;;;;;5041732;28;20184;-73
2022/09/05 10:23:33;;;;;;;3.83;2.55;;;36.70;1.00;;;;;;5040117;28;20665;-73
2022/09/05 10:26:04;;;;;;;6.35;2.70;;;37.50;1.00;;;;;;5050602;28;20189;-74
2022/09/05 10:29:05;;;;;;;6.88;2.90;;;38.10;1.00;;;;;;5043234;28;20569;-73
2022/09/05 10:31:57;;;;;;;4.45;2.55;;;39.30;1.00;;;;;;5046377;28;20180;-73
2022/09/05 10:34:29;;;;;;;6.45;2.47;;;40.50;1.00;;;;;;5042284;28;20571;-74
2022/09/05 10:37:02;;;;;;;3.83;2.70;;;40.50;1.00;;;;;;5044381;28;20200;-73
2022/09/05 10:39:34;;;;;;;4.75;2.50;;;40.40;1.00;;;;;;5044071;28;20196;-73
2022/09/05 10:42:26;;;;;;;3.78;2.65;;;39.90;1.00;;;;;;5056922;28;20169;-73
2022/09/05 10:44:54;;;;;;;5.15;2.30;;;39.60;1.00;;;;;;5049494;28;20671;-73
2022/09/05 10:47:47;;;;;;;5.05;2.70;;;39.90;1.00;;;;;;5040504;28;20184;-73
2022/09/05 10:50:32;;;;;;;4.68;2.42;;;40.50;1.00;;;;;;5046425;28;20223;-73
2022/09/05 10:53:39;;;;;;;4.05;2.50;;;40.80;1.00;;;;;;5041914;28;20218;-73
2022/09/05 10:56:18;;;;;;;8.77;2.30;;;41.00;1.00;;;;;;5039522;28;20279;-73
2022/09/05 10:59:03;;;;;;;4.13;2.40;;;41.10;1.00;;;;;;5048396;28;20196;-73
2022/09/05 11:01:40;;;;;;;7.63;2.97;;;41.20;1.00;;;;;;5050112;28;20562;-73
2022/09/05 11:04:29;;;;;;;3.30;2.33;;;42.00;1.00;;;;;;5042334;28;20176;-73
2022/09/05 11:06:59;;;;;;;6.85;2.30;;;42.50;1.00;;;;;;5046303;28;20220;-73
2022/09/05 11:09:49;;;;;;;3.25;2.20;;;42.40;1.00;;;;;;5043628;28;20219;-73
2022/09/05 11:12:29;;;;;;;4.32;2.30;;;42.30;1.00;;;;;;5035360;28;20199;-73
2022/09/05 11:14:58;;;;;;;4.03;2.20;;;43.00;1.00;;;;;;5050220;28;20304;-73
2022/09/05 11:17:35;;;;;;;4.93;2.45;;;43.30;1.00;;;;;;5044311;28;20180;-73
2022/09/05 11:20:23;;;;;;;5.80;2.35;;;43.70;1.00;;;;;;5039139;28;20168;-73
2022/09/05 11:22:59;;;;;;;3.20;2.30;;;44.10;1.00;;;;;;5047621;28;20710;-73
2022/09/05 11:25:27;;;;;;;3.90;2.08;;;44.00;1.00;;;;;;5042413;28;20199;-74
2022/09/05 11:27:55;;;;;;;4.70;2.67;;;44.10;1.00;;;;;;5044794;28;20304;-73
2022/09/05 11:30:23;;;;;;;4.43;2.17;;;44.30;1.00;;;;;;5046984;28;20169;-74
2022/09/05 11:33:04;;;;;;;3.70;2.42;;;44.50;1.00;;;;;;5042942;28;20177;-74
2022/09/05 11:35:44;;;;;;;5.72;2.40;;;44.70;1.00;;;;;;5057400;28;20195;-73
2022/09/05 11:38:10;;;;;;;10.32;2.38;;;45.30;1.00;;;;;;5046000;28;20329;-74
2022/09/05 11:40:44;;;;;;;5.60;2.65;;;45.20;1.00;;;;;;5050143;28;20299;-74
2022/09/05 11:43:37;;;;;;;9.70;2.45;;;45.30;1.00;;;;;;5045437;28;20180;-73
2022/09/05 11:46:26;;;;;;;4.60;2.30;;;45.40;1.00;;;;;;5045799;28;20271;-73
2022/09/05 11:49:06;;;;;;;4.70;2.00;;;44.70;1.00;;;;;;5049629;28;20181;-74
2022/09/05 11:52:06;;;;;;;3.55;2.40;;;45.00;1.00;;;;;;5046725;28;20712;-74
2022/09/05 11:54:54;;;;;;;4.63;2.20;;;45.30;1.00;;;;;;5044857;28;20200;-74
2022/09/05 11:57:43;;;;;;;3.25;2.22;;;45.00;1.00;;;;;;5043693;28;20164;-73
2022/09/05 12:00:18;;;;;;;5.07;2.40;;;45.20;1.00;;;;;;5042775;28;20262;-74
2022/09/05 12:03:02;;;;;;;4.15;2.30;;;45.90;1.00;;;;;;5048026;28;20681;-74
2022/09/05 12:05:36;;;;;;;2.95;2.10;;;45.90;1.00;;;;;;5046604;28;20199;-73
2022/09/05 12:08:29;;;;;;;4.85;2.30;;;45.00;1.00;;;;;;5047814;28;20591;-73
2022/09/05 12:11:15;;;;;;;6.65;2.47;;;44.50;1.00;;;;;;5046022;28;20184;-73
2022/09/05 12:14:05;;;;;;;3.50;2.08;;;44.20;1.00;;;;;;5037862;28;20238;-74
2022/09/05 12:16:57;;;;;;;4.32;2.47;;;45.00;1.00;;;;;;5046513;28;20751;-74
2022/09/05 12:19:35;;;;;;;4.93;2.67;;;45.20;1.00;;;;;;5065458;28;20199;-74
2022/09/05 12:22:27;;;;;;;5.55;2.95;;;44.20;1.00;;;;;;5037227;28;20200;-74
2022/09/05 12:25:12;;;;;;;4.30;2.50;;;43.50;1.00;;;;;;5049078;28;20269;-73
2022/09/05 12:27:39;;;;;;;5.45;2.50;;;42.70;1.00;;;;;;5050955;28;20200;-73
2022/09/05 12:30:08;;;;;;;2.80;2.30;;;43.50;1.00;;;;;;5053099;28;20582;-73
2022/09/05 12:32:52;;;;;;;4.35;2.58;;;44.50;1.00;;;;;;5051022;28;20651;-74
2022/09/05 12:35:30;;;;;;;2.63;2.17;;;45.60;1.00;;;;;;5047908;28;20204;-74
2022/09/05 12:38:18;;;;;;;3.42;2.35;;;45.90;1.00;;;;;;5054634;28;20207;-73
2022/09/05 12:41:13;;;;;;;3.42;2.40;;;45.90;1.00;;;;;;5053022;28;20204;-74
2022/09/05 12:43:44;;;;;;;5.00;2.60;;;43.90;1.00;;;;;;5049844;28;20207;-74
2022/09/05 12:46:25;;;;;;;3.55;2.53;;;43.30;1.00;;;;;;5054101;28;20740;-74
2022/09/05 12:49:06;;;;;;;7.47;2.60;;;44.30;1.00;;;;;;5057039;28;20176;-73
2022/09/05 12:51:36;;;;;;;3.00;2.50;;;44.70;1.00;;;;;;5058873;28;20176;-74
2022/09/05 12:54:21;;;;;;;3.80;2.50;;;45.80;1.00;;;;;;5048610;28;20655;-74
2022/09/05 12:56:59;;;;;;;3.05;2.40;;;45.90;1.00;;;;;;5044182;28;20663;-74
2022/09/05 12:59:27;;;;;;;5.35;2.50;;;45.20;1.00;;;;;;5044628;28;20204;-74
2022/09/05 13:02:06;;;;;;;4.95;2.50;;;45.50;1.00;;;;;;5049713;28;20207;-74
2022/09/05 13:04:39;;;;;;;7.35;2.70;;;46.30;1.00;;;;;;5047284;28;20189;-73
2022/09/05 13:07:17;;;;;;;5.32;2.47;;;46.50;1.00;;;;;;5059139;28;20646;-73
2022/09/05 13:09:55;;;;;;;4.10;2.50;;;46.80;1.00;;;;;;5060528;28;20229;-73
2022/09/05 13:12:30;;;;;;;3.20;2.22;;;46.60;1.00;;;;;;5057682;28;20176;-73
2022/09/05 13:15:04;;;;;;;3.85;2.28;;;46.80;1.00;;;;;;5052589;28;20256;-73
2022/09/05 13:17:37;;;;;;;3.15;2.17;;;47.00;1.00;;;;;;5054170;28;20226;-73
2022/09/05 13:20:17;;;;;;;4.32;2.50;;;47.50;1.00;;;;;;5033299;28;20493;-73
2022/09/05 13:22:45;;;;;;;3.72;2.40;;;47.50;1.00;;;;;;5051770;28;20168;-73
2022/09/05 13:25:23;;;;;;;4.75;2.40;;;47.80;1.00;;;;;;5063863;28;20196;-73
2022/09/05 13:27:55;;;;;;;4.68;2.78;;;47.90;1.00;;;;;;5072349;28;20183;-73
2022/09/05 13:30:24;;;;;;;3.47;2.40;;;47.50;1.00;;;;;;5064807;28;20182;-73
2022/09/05 13:32:53;;;;;;;2.90;2.00;;;47.00;1.00;;;;;;5051718;28;20168;-73
2022/09/05 13:35:28;;;;;;;4.03;2.40;;;46.90;1.00;;;;;;5057218;28;20194;-73
2022/09/05 13:38:09;;;;;;;3.30;2.40;;;46.60;1.00;;;;;;5061576;28;20283;-73
2022/09/05 13:40:45;;;;;;;3.28;2.50;;;45.40;1.00;;;;;;5042575;28;20169;-74
2022/09/05 13:43:14;;;;;;;2.80;2.13;;;45.10;1.00;;;;;;5046440;28;20199;-74
2022/09/05 13:45:50;;;;;;;3.15;2.30;;;45.30;1.00;;;;;;5034778;28;20201;-73
2022/09/05 13:48:37;;;;;;;4.25;2.10;;;44.60;1.00;;;;;;5044459;28;20549;-73
2022/09/05 13:51:31;;;;;;;4.30;2.55;;;45.10;1.00;;;;;;5047912;28;20184;-73
2022/09/05 13:54:28;;;;;;;4.90;2.30;;;46.40;1.00;;;;;;5044731;28;20651;-73
2022/09/05 13:57:18;;;;;;;5.82;2.10;;;45.50;1.00;;;;;;5041071;28;20193;-73
2022/09/05 14:00:17;;;;;;;2.70;2.10;;;44.40;1.00;;;;;;5049131;28;20590;-73
2022/09/05 14:03:14;;;;;;;4.70;2.20;;;44.30;1.00;;;;;;5045183;28;20189;-73
2022/09/05 14:06:20;;;;;;;3.60;2.33;;;45.00;1.00;;;;;;5048252;28;20188;-73
2022/09/05 14:09:02;;;;;;;3.78;2.00;;;45.40;1.00;;;;;;5046008;28;20173;-73
2022/09/05 14:11:35;;;;;;;3.95;2.65;;;45.80;1.00;;;;;;5045941;28;20544;-73
2022/09/05 14:14:14;;;;;;;4.05;2.28;;;45.70;1.00;;;;;;5037080;28;20511;-73
2022/09/05 14:16:46;;;;;;;4.05;1.90;;;45.10;1.00;;;;;;5050014;28;20183;-73
2022/09/05 14:22:06;;;;;;;3.13;2.10;;;44.30;1.00;;;;;;5050119;28;20685;-72